createdAt,value
2018-12-22T00:30:15.778Z,96.63
2018-12-22T00:32:58.006Z,96.58
2018-12-22T00:38:56.984Z,96.61
2018-12-22T00:41:31.913Z,96.44
2018-12-22T00:44:07.686Z,96.21
2018-12-22T00:46:43.331Z,97.08
2018-12-22T00:49:18.483Z,96.50
2018-12-22T00:52:16.273Z,96.76
2018-12-22T00:58:45.286Z,96.49
2018-12-22T01:01:22.618Z,96.89
2018-12-22T01:04:04.427Z,96.35
2018-12-22T01:06:39.837Z,96.77
2018-12-22T01:09:26.562Z,96.41
2018-12-22T01:12:00.090Z,95.72
2018-12-22T01:14:41.938Z,95.53
2018-12-22T01:17:23.846Z,96.18
2018-12-22T01:19:58.983Z,95.74
2018-12-22T01:25:26.160Z,96.25
2018-12-22T01:27:57.358Z,96.23
2018-12-22T01:30:30.666Z,96.19
2018-12-22T01:33:03.712Z,96.27
2018-12-22T01:35:43.248Z,96.45
2018-12-22T01:38:31.040Z,96.54
2018-12-22T01:41:06.138Z,96.40
2018-12-22T01:46:56.861Z,95.92
2018-12-22T01:49:32.717Z,95.23
2018-12-22T01:52:08.679Z,95.20
2018-12-22T01:54:47.705Z,95.16
2018-12-22T01:57:18.326Z,95.40
2018-12-22T02:03:10.600Z,95.39
2018-12-22T02:05:42.290Z,96.06
2018-12-22T02:08:17.858Z,95.94
2018-12-22T02:10:50.497Z,95.85
2018-12-22T02:16:30.033Z,96.49
2018-12-22T02:19:03.142Z,96.56
2018-12-22T02:24:38.759Z,96.46
2018-12-22T02:27:11.401Z,96.40
2018-12-22T02:29:44.421Z,96.82
2018-12-22T02:32:19.960Z,96.61
2018-12-22T02:34:55.186Z,96.94
2018-12-22T02:37:24.721Z,96.52
2018-12-22T02:39:59.952Z,96.61
2018-12-22T02:42:48.399Z,96.10
2018-12-22T02:51:17.444Z,95.99
2018-12-22T02:53:46.814Z,96.21
2018-12-22T02:56:17.655Z,96.25
2018-12-22T02:58:52.981Z,95.96
2018-12-22T03:01:47.752Z,96.32
2018-12-22T03:04:45.014Z,96.51
2018-12-22T03:07:17.700Z,96.58
2018-12-22T03:09:53.120Z,96.91
2018-12-22T03:12:47.842Z,96.86
2018-12-22T03:15:36.860Z,96.72
2018-12-22T03:18:12.335Z,96.97
2018-12-22T03:20:44.957Z,96.92
2018-12-22T03:23:18.157Z,96.98
2018-12-22T03:25:51.303Z,97.25
2018-12-22T03:28:26.702Z,97.19
2018-12-22T03:31:20.489Z,96.69
2018-12-22T03:37:13.134Z,96.62
2018-12-22T03:40:00.323Z,96.66
2018-12-22T03:42:42.639Z,96.99
2018-12-22T03:48:20.533Z,96.72
2018-12-22T03:50:56.206Z,97.13
2018-12-22T03:53:31.853Z,96.85
2018-12-22T03:56:05.301Z,97.15
2018-12-22T03:58:38.114Z,97.34
2018-12-22T04:01:36.781Z,97.22
2018-12-22T04:04:23.046Z,96.96
2018-12-22T04:07:17.473Z,96.54
2018-12-22T04:10:07.370Z,96.69
2018-12-22T04:12:44.424Z,97.13
2018-12-22T04:15:26.456Z,96.91
2018-12-22T04:17:59.410Z,96.59
2018-12-22T04:23:27.308Z,96.56
2018-12-22T04:26:00.510Z,96.44
2018-12-22T04:28:39.988Z,96.49
2018-12-22T04:31:14.765Z,96.47
2018-12-22T04:33:47.510Z,96.56
2018-12-22T04:36:22.961Z,96.49
2018-12-22T04:39:19.001Z,96.95
2018-12-22T04:41:52.295Z,97.45
2018-12-22T04:44:53.071Z,97.03
2018-12-22T04:47:26.404Z,97.37
2018-12-22T04:49:56.878Z,97.20
2018-12-22T04:52:31.730Z,97.05
2018-12-22T04:58:33.201Z,97.25
2018-12-22T05:01:08.156Z,97.55
2018-12-22T05:03:49.694Z,97.60
2018-12-22T05:06:25.007Z,97.50
2018-12-22T05:09:14.671Z,97.37
2018-12-22T05:14:43.938Z,97.43
2018-12-22T05:17:16.592Z,97.53
2018-12-22T05:19:54.087Z,97.67
2018-12-22T05:22:26.806Z,97.80
2018-12-22T05:24:59.676Z,97.84
2018-12-22T05:27:41.694Z,97.90
2018-12-22T05:30:11.227Z,97.87
2018-12-22T05:35:50.450Z,98.08
2018-12-22T05:38:19.841Z,97.97
2018-12-22T05:40:55.113Z,98.07
2018-12-22T05:43:24.513Z,97.93
2018-12-22T05:46:03.904Z,97.85
2018-12-22T05:48:33.281Z,98.18
2018-12-22T05:51:05.192Z,97.90
2018-12-22T06:00:00.353Z,98.08
2018-12-22T06:02:48.085Z,98.31
2018-12-22T06:05:17.549Z,98.23
2018-12-22T06:07:46.958Z,98.32
2018-12-22T06:10:16.417Z,98.10
2018-12-22T06:12:51.500Z,97.74
2018-12-22T06:18:43.933Z,98.18
2018-12-22T06:21:19.580Z,98.04
2018-12-22T06:27:07.448Z,98.11
2018-12-22T06:32:52.480Z,98.28
2018-12-22T06:38:31.503Z,98.38
2018-12-22T06:41:07.172Z,98.21
2018-12-22T06:44:02.011Z,98.44
2018-12-22T06:46:39.941Z,98.39
2018-12-22T06:49:15.141Z,98.40
2018-12-22T06:51:58.659Z,98.68
2018-12-22T06:54:31.810Z,98.23
2018-12-22T06:57:07.330Z,98.43
2018-12-22T06:59:40.788Z,98.58
2018-12-22T07:02:38.120Z,98.54
2018-12-22T07:05:10.846Z,98.67
2018-12-22T07:07:43.824Z,98.38
2018-12-22T07:10:19.219Z,98.36
2018-12-22T07:14:20.718Z,98.47
2018-12-22T07:16:59.467Z,98.28
2018-12-22T07:19:51.827Z,98.29
2018-12-22T07:22:37.622Z,98.53
2018-12-22T07:25:32.181Z,98.73
2018-12-22T07:28:11.256Z,98.20
2018-12-22T07:31:07.944Z,98.55
2018-12-22T07:36:43.516Z,98.40
2018-12-22T07:39:16.401Z,98.53
2018-12-22T07:48:28.192Z,98.56
2018-12-22T08:41:23.123Z,97.86
2018-12-22T08:50:11.411Z,97.57
2018-12-22T08:52:40.826Z,97.59
2018-12-22T08:55:10.407Z,97.83
2018-12-22T08:57:46.332Z,97.46
2018-12-22T09:03:22.482Z,97.59
2018-12-22T09:05:51.954Z,97.36
2018-12-22T09:08:22.382Z,97.61
2018-12-22T09:10:51.805Z,97.83
2018-12-22T09:13:21.266Z,97.55
2018-12-22T09:15:50.818Z,97.33
2018-12-22T10:05:48.655Z,97.10
2018-12-22T10:14:57.327Z,97.27
2018-12-22T10:17:45.172Z,97.29
2018-12-22T10:20:33.885Z,97.00
2018-12-22T10:26:20.978Z,97.52
2018-12-22T10:45:00.061Z,96.68
2018-12-22T10:47:29.636Z,96.77
2018-12-22T10:49:59.066Z,95.89
2018-12-22T10:52:28.125Z,95.80
2018-12-22T10:55:16.037Z,95.70
2018-12-22T11:01:08.606Z,95.74
2018-12-22T11:06:46.551Z,95.45
2018-12-22T11:09:19.030Z,95.02
2018-12-22T11:11:48.537Z,95.30
2018-12-22T11:14:18.046Z,95.41
2018-12-22T11:16:47.607Z,95.43
2018-12-22T11:28:49.570Z,95.59
2018-12-22T11:31:19.014Z,95.48
2018-12-22T11:33:48.541Z,94.45
